Time;durP1;ratioP1;P1;durP2;ratioP2;P2;SDS_P1;SDS_P2;PMS_P1;PMS_P2;Temp;Humidity;BMP_temperature;BMP_pressure;BME280_temperature;BME280_humidity;BME280_pressure;Samples;Min_cycle;Max_cycle;Signal;HPM_P1;HPM_P2
2022/12/28 00:00:29;;;;;;;1.13;0.90;;;15.50;49.60;;;;;;5087144;27;46373;-77
2022/12/28 00:02:56;;;;;;;1.67;0.80;;;15.50;49.70;;;;;;5087114;27;45251;-77
2022/12/28 00:05:23;;;;;;;0.80;0.80;;;15.50;49.70;;;;;;5087649;27;45164;-77
2022/12/28 00:07:50;;;;;;;0.95;0.65;;;15.50;49.60;;;;;;5087926;27;45299;-77
2022/12/28 00:10:17;;;;;;;0.73;0.73;;;15.50;49.60;;;;;;5087260;27;46651;-77
2022/12/28 00:12:45;;;;;;;1.70;0.80;;;15.60;49.60;;;;;;5086836;27;45344;-77
2022/12/28 00:15:12;;;;;;;1.42;0.80;;;15.60;49.50;;;;;;5087058;27;45240;-77
2022/12/28 00:17:38;;;;;;;0.80;0.70;;;15.60;49.40;;;;;;5087035;27;45318;-77
2022/12/28 00:20:06;;;;;;;0.75;0.75;;;15.60;49.40;;;;;;5087021;27;46369;-77
2022/12/28 00:22:33;;;;;;;1.08;0.90;;;15.70;49.30;;;;;;5086872;27;45232;-77
2022/12/28 00:25:00;;;;;;;0.90;0.70;;;15.70;49.30;;;;;;5087346;27;45185;-77
2022/12/28 00:27:27;;;;;;;1.50;1.02;;;15.70;49.20;;;;;;5087102;27;45465;-77
2022/12/28 00:29:55;;;;;;;1.58;0.60;;;15.70;49.10;;;;;;5086647;27;45409;-78
2022/12/28 00:32:22;;;;;;;0.80;0.80;;;15.80;49.10;;;;;;5086684;27;45229;-77
2022/12/28 00:34:49;;;;;;;0.70;0.70;;;15.80;49.00;;;;;;5086260;27;45209;-77
2022/12/28 00:37:15;;;;;;;0.93;0.93;;;15.80;48.90;;;;;;5086718;27;45366;-77
2022/12/28 00:39:42;;;;;;;0.60;0.60;;;15.80;49.00;;;;;;5085763;27;45296;-78
2022/12/28 00:42:09;;;;;;;1.10;0.73;;;15.80;49.00;;;;;;5086442;27;45456;-78
2022/12/28 00:44:36;;;;;;;0.75;0.65;;;15.80;49.00;;;;;;5086461;27;45347;-78
2022/12/28 00:47:04;;;;;;;0.60;0.60;;;15.80;49.00;;;;;;5086708;27;45414;-77
2022/12/28 00:49:31;;;;;;;1.85;0.75;;;15.80;49.00;;;;;;5086730;27;45453;-78
2022/12/28 00:51:58;;;;;;;0.98;0.80;;;15.70;49.00;;;;;;5086143;27;45230;-77
2022/12/28 00:54:24;;;;;;;0.85;0.70;;;15.70;49.00;;;;;;5086277;27;45231;-77
2022/12/28 00:56:51;;;;;;;0.98;0.90;;;15.70;49.10;;;;;;5086773;27;45268;-76
2022/12/28 00:59:18;;;;;;;1.05;0.70;;;15.70;49.20;;;;;;5087093;27;46624;-77
2022/12/28 01:01:45;;;;;;;0.80;0.80;;;15.70;49.20;;;;;;5086183;27;45330;-77
2022/12/28 01:04:13;;;;;;;0.63;0.60;;;15.60;49.20;;;;;;5086403;27;45120;-77
2022/12/28 01:06:40;;;;;;;1.90;0.68;;;15.60;49.20;;;;;;5085914;27;45215;-77
2022/12/28 01:09:06;;;;;;;0.57;0.52;;;15.60;49.30;;;;;;5085505;27;45410;-77
2022/12/28 01:11:33;;;;;;;0.75;0.75;;;15.60;49.40;;;;;;5085535;27;45180;-77
2022/12/28 01:14:01;;;;;;;1.00;0.90;;;15.50;49.40;;;;;;5082949;27;45180;-77
2022/12/28 01:16:29;;;;;;;0.60;0.60;;;15.50;49.50;;;;;;5085680;27;45307;-77
2022/12/28 01:18:57;;;;;;;0.60;0.60;;;15.50;49.50;;;;;;5085219;27;46553;-80
2022/12/28 01:21:26;;;;;;;1.05;0.70;;;15.50;49.50;;;;;;5085009;27;45244;-77
2022/12/28 01:23:53;;;;;;;0.75;0.75;;;15.50;49.50;;;;;;5085127;27;45124;-77
2022/12/28 01:26:20;;;;;;;0.75;0.70;;;15.50;49.40;;;;;;5085689;27;45364;-77
2022/12/28 01:28:47;;;;;;;0.75;0.70;;;15.50;49.70;;;;;;5085727;27;46423;-78
2022/12/28 01:31:15;;;;;;;1.08;0.68;;;15.60;49.30;;;;;;5085458;27;45245;-77
2022/12/28 01:33:42;;;;;;;0.68;0.60;;;15.60;49.30;;;;;;5085162;27;45228;-80
2022/12/28 01:36:10;;;;;;;0.47;0.47;;;15.60;49.20;;;;;;5085652;27;45215;-77
2022/12/28 01:38:38;;;;;;;0.50;0.50;;;15.60;49.10;;;;;;5084878;27;45405;-79
2022/12/28 01:41:07;;;;;;;1.85;0.68;;;15.60;49.10;;;;;;5085001;27;45185;-79
2022/12/28 01:43:39;;;;;;;0.60;0.60;;;15.70;49.10;;;;;;5085144;27;45383;-80
2022/12/28 01:46:09;;;;;;;3.35;0.60;;;15.70;49.00;;;;;;5085228;27;45398;-80
2022/12/28 01:48:36;;;;;;;0.43;0.43;;;15.70;49.00;;;;;;5084724;27;46939;-80
2022/12/28 01:51:03;;;;;;;0.60;0.60;;;15.80;49.00;;;;;;5084903;27;45385;-78
2022/12/28 01:53:30;;;;;;;1.65;0.70;;;15.80;49.00;;;;;;5085155;27;45175;-77
2022/12/28 01:55:58;;;;;;;0.63;0.63;;;15.80;48.90;;;;;;5085592;27;45177;-78
2022/12/28 01:58:26;;;;;;;0.50;0.50;;;15.80;48.90;;;;;;5084747;27;45237;-77
2022/12/28 02:00:52;;;;;;;0.63;0.63;;;15.80;48.90;;;;;;5084955;27;45236;-77
2022/12/28 02:03:21;;;;;;;0.80;0.52;;;15.80;48.90;;;;;;5084808;27;45269;-77
2022/12/28 02:05:49;;;;;;;0.82;0.70;;;15.80;49.00;;;;;;5084872;27;45365;-77
2022/12/28 02:08:18;;;;;;;0.60;0.60;;;15.70;49.00;;;;;;5084794;27;46928;-76
2022/12/28 02:10:45;;;;;;;0.60;0.60;;;15.70;49.10;;;;;;5084397;27;45206;-78
2022/12/28 02:13:14;;;;;;;0.50;0.50;;;15.70;49.10;;;;;;5085935;27;45239;-77
2022/12/28 02:15:41;;;;;;;0.60;0.60;;;15.70;49.10;;;;;;5085680;27;45428;-77
2022/12/28 02:18:08;;;;;;;0.88;0.70;;;15.70;49.10;;;;;;5085964;27;46556;-78
2022/12/28 02:20:43;;;;;;;1.10;0.63;;;15.60;49.10;;;;;;5088349;27;45362;-77
2022/12/28 02:23:39;;;;;;;0.73;0.50;;;15.60;49.20;;;;;;5087539;27;44734;-78
2022/12/28 02:26:35;;;;;;;1.58;0.73;;;15.60;49.20;;;;;;5088170;27;45442;-77
2022/12/28 02:29:26;;;;;;;0.30;0.30;;;15.60;49.30;;;;;;5087232;27;45462;-77
2022/12/28 02:31:58;;;;;;;0.50;0.50;;;15.50;49.40;;;;;;5088152;27;45295;-77
2022/12/28 02:34:26;;;;;;;0.40;0.40;;;15.50;49.40;;;;;;5085106;27;45207;-77
2022/12/28 02:36:55;;;;;;;0.50;0.50;;;15.50;49.50;;;;;;5088702;27;45349;-77
2022/12/28 02:39:23;;;;;;;1.10;0.60;;;15.50;49.50;;;;;;5087494;27;45126;-78
2022/12/28 02:41:50;;;;;;;0.70;0.70;;;15.50;49.50;;;;;;5087706;27;45319;-77
2022/12/28 02:50:04;;;;;;;0.60;0.60;;;15.50;49.40;;;;;;5087840;27;45323;-77
2022/12/28 02:50:07;;;;;;;0.63;0.50;;;15.60;49.40;;;;;;5087280;28;45281;-77
2022/12/28 02:52:47;;;;;;;0.52;0.52;;;15.60;49.30;;;;;;5087947;27;45293;-77
2022/12/28 02:58:16;;;;;;;0.50;0.40;;;15.70;49.20;;;;;;5085421;28;45284;-77
2022/12/28 03:00:52;;;;;;;0.40;0.40;;;15.70;49.20;;;;;;5087550;27;45186;-79
2022/12/28 03:03:21;;;;;;;0.95;0.80;;;15.70;49.10;;;;;;5087277;27;45373;-79
2022/12/28 03:08:40;;;;;;;1.88;0.65;;;15.70;49.10;;;;;;5087441;28;45199;-79
2022/12/28 03:11:08;;;;;;;0.85;0.57;;;15.70;49.60;;;;;;5087286;27;46613;-80
2022/12/28 03:13:45;;;;;;;0.65;0.40;;;15.70;49.10;;;;;;5086872;27;45271;-79
2022/12/28 03:16:16;;;;;;;0.30;0.30;;;15.70;49.10;;;;;;5087110;27;45258;-79
2022/12/28 03:32:27;;;;;;;0.50;0.50;;;15.70;49.40;;;;;;5083925;28;45402;-77
2022/12/28 03:34:54;;;;;;;0.40;0.40;;;15.60;49.40;;;;;;5086535;27;45249;-77
2022/12/28 03:37:25;;;;;;;0.65;0.65;;;15.60;49.40;;;;;;5086990;27;45224;-77
2022/12/28 03:39:53;;;;;;;0.50;0.50;;;15.60;49.40;;;;;;5087378;27;45296;-77
2022/12/28 03:45:12;;;;;;;0.50;0.50;;;15.60;49.60;;;;;;5084229;28;45194;-79
2022/12/28 03:47:40;;;;;;;0.30;0.30;;;15.60;49.70;;;;;;5086851;27;45339;-80
2022/12/28 03:50:07;;;;;;;0.63;0.43;;;15.50;49.60;;;;;;5086918;27;45238;-79
2022/12/28 03:52:34;;;;;;;0.40;0.40;;;15.60;49.60;;;;;;5086401;27;47603;-79
2022/12/28 03:55:01;;;;;;;0.47;0.47;;;15.60;49.50;;;;;;5086489;27;45238;-79
2022/12/28 03:57:28;;;;;;;0.50;0.50;;;15.60;49.40;;;;;;5086726;27;45356;-77
2022/12/28 03:59:54;;;;;;;0.40;0.40;;;15.70;49.50;;;;;;5086232;27;45398;-79
2022/12/28 04:02:21;;;;;;;0.40;0.40;;;15.70;49.40;;;;;;5086425;27;45238;-80
2022/12/28 04:04:50;;;;;;;0.25;0.25;;;15.70;49.30;;;;;;5086573;27;45198;-80
2022/12/28 04:07:16;;;;;;;0.70;0.60;;;15.70;49.30;;;;;;5086701;27;45238;-77
2022/12/28 04:09:43;;;;;;;1.02;0.47;;;15.80;49.30;;;;;;5086420;27;45259;-79
2022/12/28 04:12:11;;;;;;;0.60;0.60;;;15.80;49.20;;;;;;5086333;27;45475;-79
2022/12/28 04:14:38;;;;;;;0.73;0.50;;;15.80;49.20;;;;;;5086371;28;45186;-79
2022/12/28 04:17:04;;;;;;;0.40;0.38;;;15.80;49.10;;;;;;5086344;27;45385;-79
2022/12/28 04:19:31;;;;;;;0.43;0.43;;;15.80;49.10;;;;;;5086269;27;45394;-79
2022/12/28 04:22:00;;;;;;;0.40;0.40;;;15.80;49.10;;;;;;5085976;27;46657;-79
2022/12/28 04:24:26;;;;;;;0.38;0.32;;;15.80;49.10;;;;;;5085911;27;45184;-79
2022/12/28 04:26:53;;;;;;;0.80;0.60;;;15.80;49.10;;;;;;5086259;27;45139;-79
2022/12/28 04:29:20;;;;;;;0.90;0.43;;;15.80;49.20;;;;;;5086362;27;45381;-79
2022/12/28 04:31:47;;;;;;;0.40;0.40;;;15.80;49.20;;;;;;5085692;27;46399;-79
2022/12/28 04:34:14;;;;;;;0.75;0.60;;;15.80;49.30;;;;;;5086264;27;45406;-79
2022/12/28 04:36:41;;;;;;;0.65;0.50;;;15.70;49.30;;;;;;5086712;27;45207;-78
2022/12/28 04:39:10;;;;;;;0.80;0.60;;;15.70;49.30;;;;;;5086139;27;45550;-79
2022/12/28 04:41:36;;;;;;;0.77;0.45;;;15.70;49.40;;;;;;5084390;27;47538;-76
2022/12/28 04:44:03;;;;;;;1.13;0.50;;;15.70;49.40;;;;;;5085486;28;45267;-79
2022/12/28 04:46:30;;;;;;;0.30;0.30;;;15.70;49.50;;;;;;5086186;27;45244;-79
2022/12/28 04:48:57;;;;;;;0.40;0.40;;;15.70;49.50;;;;;;5083760;27;45238;-79
2022/12/28 04:51:25;;;;;;;1.15;0.40;;;15.60;49.50;;;;;;5085549;27;46373;-79
2022/12/28 04:53:52;;;;;;;0.68;0.30;;;15.60;49.60;;;;;;5085849;27;45350;-79
2022/12/28 04:56:21;;;;;;;0.30;0.30;;;15.60;49.70;;;;;;5086151;27;45459;-79
2022/12/28 04:58:48;;;;;;;0.30;0.30;;;15.60;49.70;;;;;;5085955;27;45150;-79
2022/12/28 05:01:15;;;;;;;0.40;0.40;;;15.60;50.40;;;;;;5085547;27;45192;-79
2022/12/28 05:03:43;;;;;;;0.40;0.35;;;15.60;49.70;;;;;;5085534;27;45252;-79
2022/12/28 05:06:12;;;;;;;1.85;0.40;;;15.60;49.70;;;;;;5085840;27;45289;-79
2022/12/28 05:08:38;;;;;;;0.55;0.30;;;15.60;49.70;;;;;;5086227;27;45235;-79
2022/12/28 05:11:06;;;;;;;0.88;0.50;;;15.60;49.60;;;;;;5085576;27;46415;-79
2022/12/28 05:13:34;;;;;;;0.30;0.30;;;15.70;49.60;;;;;;5085505;27;45353;-79
2022/12/28 05:16:02;;;;;;;0.73;0.63;;;15.70;49.50;;;;;;5085622;27;45150;-79
2022/12/28 05:18:28;;;;;;;0.60;0.60;;;15.70;49.50;;;;;;5087088;28;45129;-78
2022/12/28 05:20:59;;;;;;;0.43;0.32;;;15.80;49.40;;;;;;5089516;27;46679;-78
2022/12/28 05:23:26;;;;;;;0.40;0.38;;;15.80;49.30;;;;;;5090276;27;45262;-76
2022/12/28 05:25:53;;;;;;;1.77;0.40;;;15.80;49.20;;;;;;5088460;27;45183;-79
2022/12/28 05:28:20;;;;;;;0.40;0.40;;;15.80;49.10;;;;;;5090288;27;45116;-78
2022/12/28 05:30:48;;;;;;;0.45;0.45;;;15.90;49.20;;;;;;5089899;27;46387;-79
2022/12/28 05:33:15;;;;;;;0.30;0.30;;;15.90;49.20;;;;;;5088427;27;45332;-78
2022/12/28 05:35:41;;;;;;;0.35;0.35;;;15.90;49.20;;;;;;5089801;28;45170;-78
2022/12/28 05:38:08;;;;;;;0.30;0.30;;;15.90;49.20;;;;;;5091152;27;45136;-78
2022/12/28 05:40:35;;;;;;;0.43;0.43;;;15.80;49.10;;;;;;5089966;27;45152;-79
2022/12/28 05:43:02;;;;;;;0.40;0.38;;;15.80;49.10;;;;;;5092229;27;45232;-78
2022/12/28 05:45:29;;;;;;;0.40;0.40;;;15.80;49.20;;;;;;5091289;27;45290;-78
2022/12/28 05:47:57;;;;;;;0.40;0.40;;;15.80;49.20;;;;;;5090467;27;45485;-78
2022/12/28 05:50:24;;;;;;;0.88;0.45;;;15.80;49.30;;;;;;5090252;27;45575;-78
2022/12/28 05:52:51;;;;;;;0.60;0.30;;;15.80;49.30;;;;;;5090537;27;45388;-78
2022/12/28 05:55:18;;;;;;;0.30;0.30;;;15.70;49.40;;;;;;5091558;27;45236;-78
2022/12/28 05:57:44;;;;;;;0.38;0.38;;;15.70;49.40;;;;;;5091610;27;45319;-78
2022/12/28 06:00:12;;;;;;;0.35;0.30;;;15.70;49.50;;;;;;5090885;27;45183;-78
2022/12/28 06:02:39;;;;;;;0.47;0.47;;;15.70;49.50;;;;;;5090188;27;45195;-78
2022/12/28 06:05:08;;;;;;;0.32;0.32;;;15.70;49.60;;;;;;5090411;27;45327;-78
2022/12/28 06:07:35;;;;;;;0.40;0.30;;;15.60;49.60;;;;;;5091678;27;45275;-78
2022/12/28 06:10:02;;;;;;;0.38;0.38;;;15.60;49.70;;;;;;5089814;27;45476;-79
2022/12/28 06:12:29;;;;;;;0.32;0.32;;;15.60;49.70;;;;;;5087253;27;45191;-78
2022/12/28 06:14:59;;;;;;;0.30;0.30;;;15.60;49.80;;;;;;5092277;28;45343;-78
2022/12/28 06:17:25;;;;;;;0.17;0.17;;;15.60;49.80;;;;;;5089312;27;45477;-79
2022/12/28 06:19:52;;;;;;;0.40;0.40;;;15.60;49.80;;;;;;5087959;28;45206;-79
2022/12/28 06:22:21;;;;;;;0.30;0.30;;;15.60;49.70;;;;;;5089128;27;45194;-79
2022/12/28 06:24:47;;;;;;;0.40;0.40;;;15.60;49.70;;;;;;5089381;27;45346;-78
2022/12/28 06:27:14;;;;;;;0.38;0.38;;;15.70;49.70;;;;;;5089788;27;45253;-78
2022/12/28 06:29:41;;;;;;;0.75;0.40;;;15.70;49.60;;;;;;5086660;27;45261;-79
2022/12/28 06:32:08;;;;;;;0.30;0.30;;;15.70;49.80;;;;;;5087504;27;45201;-78
2022/12/28 06:34:35;;;;;;;1.17;0.30;;;15.70;49.60;;;;;;5087623;28;45177;-79
2022/12/28 06:37:03;;;;;;;0.50;0.40;;;15.70;49.60;;;;;;5087611;27;45269;-79
2022/12/28 06:39:31;;;;;;;0.40;0.40;;;15.70;49.50;;;;;;5087078;27;45623;-78
2022/12/28 06:41:58;;;;;;;0.32;0.30;;;15.80;49.50;;;;;;5087853;27;45132;-79
2022/12/28 06:44:24;;;;;;;0.40;0.40;;;15.80;49.40;;;;;;5087549;28;45185;-78
2022/12/28 06:46:51;;;;;;;0.40;0.40;;;15.80;49.40;;;;;;5087449;27;45308;-78
2022/12/28 06:49:18;;;;;;;0.40;0.40;;;15.80;49.30;;;;;;5086437;27;46461;-79
2022/12/28 06:51:45;;;;;;;0.30;0.30;;;15.80;49.30;;;;;;5086642;27;45431;-79
2022/12/28 06:54:12;;;;;;;0.30;0.30;;;15.80;49.30;;;;;;5086171;27;45207;-79
2022/12/28 06:56:40;;;;;;;0.60;0.30;;;15.80;49.30;;;;;;5086168;27;45160;-79
2022/12/28 06:59:07;;;;;;;0.40;0.40;;;15.80;49.30;;;;;;5086269;27;45395;-79
2022/12/28 07:01:34;;;;;;;0.20;0.20;;;15.80;49.40;;;;;;5086288;27;45477;-78
2022/12/28 07:04:02;;;;;;;0.30;0.30;;;15.80;49.40;;;;;;5086616;27;45277;-79
2022/12/28 07:06:29;;;;;;;0.28;0.28;;;15.80;49.40;;;;;;5088329;27;45143;-78
2022/12/28 07:08:58;;;;;;;0.65;0.40;;;15.70;49.40;;;;;;5089546;27;45466;-78
2022/12/28 07:11:25;;;;;;;0.40;0.40;;;15.70;50.10;;;;;;5088880;27;45160;-78
2022/12/28 07:13:53;;;;;;;0.30;0.30;;;15.70;49.50;;;;;;5088334;27;45234;-79
2022/12/28 07:16:21;;;;;;;0.38;0.38;;;15.70;49.60;;;;;;5089129;27;45436;-79
2022/12/28 07:18:47;;;;;;;0.40;0.35;;;15.70;49.60;;;;;;5085803;27;45352;-79
2022/12/28 07:21:15;;;;;;;0.30;0.30;;;15.70;49.70;;;;;;5087866;27;45271;-79
2022/12/28 07:23:42;;;;;;;0.40;0.40;;;15.60;49.70;;;;;;5089076;27;45267;-79
2022/12/28 07:26:13;;;;;;;0.30;0.30;;;15.60;49.80;;;;;;5089262;27;45215;-79
2022/12/28 07:28:40;;;;;;;0.85;0.50;;;15.60;49.80;;;;;;5088961;27;45361;-79
2022/12/28 07:31:09;;;;;;;0.22;0.22;;;15.60;49.70;;;;;;5088817;27;45206;-79
2022/12/28 07:33:36;;;;;;;0.30;0.30;;;15.70;49.70;;;;;;5089087;27;45202;-79
2022/12/28 07:36:04;;;;;;;0.45;0.45;;;15.70;49.70;;;;;;5088857;27;45532;-79
2022/12/28 07:38:30;;;;;;;0.30;0.30;;;15.70;49.70;;;;;;5089135;27;45401;-77
2022/12/28 07:41:01;;;;;;;0.30;0.30;;;15.70;49.70;;;;;;5088308;27;45261;-79
2022/12/28 07:43:29;;;;;;;0.30;0.30;;;15.70;49.70;;;;;;5088755;27;45371;-79
2022/12/28 07:46:00;;;;;;;0.40;0.40;;;15.70;49.70;;;;;;5088531;27;45284;-79
2022/12/28 07:48:29;;;;;;;0.40;0.40;;;15.70;49.60;;;;;;5084583;27;46321;-78
2022/12/28 07:50:56;;;;;;;0.30;0.30;;;15.80;49.60;;;;;;5087108;27;44695;-78
2022/12/28 07:53:23;;;;;;;0.82;0.30;;;15.80;49.50;;;;;;5087031;27;45222;-78
2022/12/28 07:55:55;;;;;;;0.90;0.40;;;15.80;49.50;;;;;;5086415;27;45187;-78
2022/12/28 07:58:22;;;;;;;0.75;0.47;;;15.80;49.40;;;;;;5093031;27;45480;-78
2022/12/28 08:00:49;;;;;;;0.20;0.20;;;15.80;49.40;;;;;;5100238;27;44561;-77
2022/12/28 08:03:16;;;;;;;0.28;0.28;;;15.90;49.40;;;;;;5106418;27;45297;-77
2022/12/28 08:05:44;;;;;;;0.73;0.30;;;15.90;49.40;;;;;;5106960;27;45324;-77
2022/12/28 08:08:11;;;;;;;0.35;0.32;;;15.90;49.30;;;;;;5105350;27;46809;-77
2022/12/28 08:10:38;;;;;;;0.40;0.40;;;15.90;49.40;;;;;;5105696;27;44641;-77
2022/12/28 08:13:05;;;;;;;1.02;0.30;;;15.90;49.40;;;;;;5105774;27;45177;-78
2022/12/28 08:15:32;;;;;;;0.52;0.30;;;15.80;49.30;;;;;;5107211;27;45353;-77
2022/12/28 08:17:59;;;;;;;0.28;0.28;;;15.80;50.00;;;;;;5105683;27;45499;-77
2022/12/28 08:20:26;;;;;;;0.30;0.30;;;15.80;49.40;;;;;;5106380;27;45001;-78
2022/12/28 08:22:54;;;;;;;0.40;0.40;;;15.80;49.40;;;;;;5106293;27;45177;-77
2022/12/28 08:25:21;;;;;;;0.40;0.30;;;15.80;49.40;;;;;;5106332;27;45159;-78
2022/12/28 08:27:47;;;;;;;0.43;0.40;;;15.80;49.50;;;;;;5105972;27;45355;-78
2022/12/28 08:30:14;;;;;;;0.80;0.38;;;15.80;49.50;;;;;;5105945;27;45439;-78
2022/12/28 08:32:41;;;;;;;0.38;0.38;;;15.80;49.60;;;;;;5105827;27;44721;-78
2022/12/28 08:35:10;;;;;;;0.20;0.20;;;15.70;49.60;;;;;;5106009;27;45112;-78
2022/12/28 08:37:37;;;;;;;0.40;0.40;;;15.70;49.60;;;;;;5106398;27;45228;-78
2022/12/28 08:40:07;;;;;;;0.40;0.32;;;15.70;49.70;;;;;;5103969;27;45336;-77
2022/12/28 08:42:34;;;;;;;0.38;0.38;;;15.70;49.70;;;;;;5105153;27;45139;-78
2022/12/28 08:45:07;;;;;;;0.30;0.30;;;15.70;49.80;;;;;;5106339;27;45148;-78
2022/12/28 08:47:34;;;;;;;0.40;0.40;;;15.70;49.80;;;;;;5105872;27;47573;-78
2022/12/28 08:50:01;;;;;;;0.55;0.40;;;15.70;49.90;;;;;;5106293;27;45201;-78
2022/12/28 08:52:27;;;;;;;1.98;0.30;;;15.70;49.80;;;;;;5105417;27;44623;-77
2022/12/28 08:54:54;;;;;;;0.38;0.35;;;15.80;49.80;;;;;;5106133;27;44799;-78
2022/12/28 08:57:22;;;;;;;0.30;0.30;;;15.80;49.70;;;;;;5104842;27;45506;-78
2022/12/28 08:59:49;;;;;;;0.85;0.20;;;15.80;49.70;;;;;;5104738;27;45192;-78
2022/12/28 09:02:16;;;;;;;0.50;0.38;;;15.80;49.60;;;;;;5099060;27;45164;-78
2022/12/28 09:04:43;;;;;;;0.28;0.28;;;15.90;49.60;;;;;;5104139;27;45380;-78
2022/12/28 09:07:10;;;;;;;0.32;0.32;;;15.90;49.50;;;;;;5102886;27;45701;-78
2022/12/28 09:09:37;;;;;;;0.38;0.30;;;15.90;49.50;;;;;;5103235;27;45299;-78
2022/12/28 09:12:06;;;;;;;0.40;0.40;;;15.90;49.50;;;;;;5101324;27;44656;-76
2022/12/28 09:14:34;;;;;;;0.70;0.50;;;16.00;49.40;;;;;;5098744;28;45533;-78
2022/12/28 09:17:01;;;;;;;1.80;0.65;;;16.00;49.40;;;;;;5102441;27;46435;-78
2022/12/28 09:19:28;;;;;;;1.13;0.35;;;16.00;49.40;;;;;;5099657;27;45289;-78
2022/12/28 09:21:54;;;;;;;0.40;0.40;;;16.00;49.30;;;;;;5104948;27;44645;-77
2022/12/28 09:24:21;;;;;;;0.40;0.40;;;16.00;49.30;;;;;;5105787;27;45207;-78
2022/12/28 09:26:51;;;;;;;0.65;0.40;;;16.00;49.30;;;;;;5103630;27;45521;-77
2022/12/28 09:29:18;;;;;;;1.05;0.32;;;16.00;49.40;;;;;;5100932;28;45224;-77
2022/12/28 09:31:46;;;;;;;0.60;0.43;;;16.00;49.40;;;;;;5100331;27;45166;-77
2022/12/28 09:34:13;;;;;;;0.50;0.50;;;16.00;49.40;;;;;;5101949;27;45128;-77
2022/12/28 09:36:41;;;;;;;0.90;0.32;;;16.00;49.40;;;;;;5101216;27;45227;-77
2022/12/28 09:39:11;;;;;;;0.50;0.32;;;16.10;49.50;;;;;;5099786;27;44587;-77
2022/12/28 09:41:41;;;;;;;0.40;0.40;;;16.10;49.50;;;;;;5098372;27;45280;-77
2022/12/28 09:44:34;;;;;;;0.30;0.30;;;16.10;49.60;;;;;;5097652;27;45327;-78
2022/12/28 09:47:03;;;;;;;0.45;0.25;;;16.10;49.50;;;;;;5095981;27;45205;-77
2022/12/28 09:49:35;;;;;;;0.75;0.35;;;16.10;49.60;;;;;;5097710;27;45129;-77
2022/12/28 09:52:21;;;;;;;0.73;0.60;;;16.10;49.60;;;;;;5096554;28;45301;-78
2022/12/28 09:54:48;;;;;;;0.30;0.30;;;16.10;49.70;;;;;;5099064;27;44853;-78
2022/12/28 09:57:15;;;;;;;0.30;0.30;;;16.10;49.70;;;;;;5098486;27;45558;-78
2022/12/28 09:59:42;;;;;;;0.40;0.40;;;16.10;49.70;;;;;;5098015;27;45113;-78
2022/12/28 10:02:17;;;;;;;0.90;0.38;;;16.20;49.80;;;;;;5093502;27;45239;-76
2022/12/28 10:04:44;;;;;;;0.77;0.35;;;16.20;49.80;;;;;;5087121;27;45403;-77
2022/12/28 10:07:11;;;;;;;0.40;0.20;;;16.20;49.80;;;;;;5088313;27;47570;-76
2022/12/28 10:09:38;;;;;;;0.82;0.40;;;16.20;49.90;;;;;;5089774;27;45354;-76
2022/12/28 10:12:11;;;;;;;0.75;0.30;;;16.20;49.90;;;;;;5089851;27;45319;-76
2022/12/28 10:14:45;;;;;;;0.30;0.30;;;16.20;49.90;;;;;;5087634;27;45284;-75
2022/12/28 10:17:14;;;;;;;1.00;0.47;;;16.20;50.00;;;;;;5086679;27;45522;-78
2022/12/28 10:19:41;;;;;;;0.30;0.30;;;16.20;50.10;;;;;;5087977;27;45146;-77
2022/12/28 10:22:08;;;;;;;1.15;0.40;;;16.20;50.10;;;;;;5088059;27;45137;-78
2022/12/28 10:24:35;;;;;;;1.30;0.60;;;16.20;50.00;;;;;;5087779;28;45276;-77
2022/12/28 10:27:04;;;;;;;0.40;0.30;;;16.20;50.10;;;;;;5086674;27;46666;-77
2022/12/28 10:29:32;;;;;;;0.65;0.50;;;16.30;50.10;;;;;;5091815;27;45213;-77
2022/12/28 10:32:00;;;;;;;0.45;0.30;;;16.30;50.00;;;;;;5091802;27;45507;-78
2022/12/28 10:34:29;;;;;;;0.60;0.43;;;16.40;49.90;;;;;;5092383;27;45360;-78
2022/12/28 10:36:58;;;;;;;2.35;0.32;;;16.40;49.90;;;;;;5091778;27;45597;-78
2022/12/28 10:39:25;;;;;;;0.30;0.20;;;16.40;49.90;;;;;;5093635;27;45215;-78
2022/12/28 10:41:53;;;;;;;1.52;0.30;;;16.40;49.90;;;;;;5097041;27;45321;-78
2022/12/28 10:44:21;;;;;;;1.08;0.50;;;16.40;49.80;;;;;;5096567;27;45136;-78
2022/12/28 10:46:53;;;;;;;0.38;0.38;;;16.50;49.80;;;;;;5096878;27;46826;-78
2022/12/28 10:49:20;;;;;;;1.45;0.50;;;16.50;49.80;;;;;;5096743;27;45219;-78
2022/12/28 10:52:03;;;;;;;1.05;0.70;;;16.50;49.80;;;;;;5097510;27;45284;-78
2022/12/28 10:54:32;;;;;;;0.40;0.40;;;16.40;49.90;;;;;;5100584;27;45190;-79
2022/12/28 10:56:59;;;;;;;0.68;0.30;;;16.40;49.90;;;;;;5099667;27;45192;-78
2022/12/28 10:59:26;;;;;;;0.25;0.25;;;16.40;50.00;;;;;;5100966;27;45230;-78
2022/12/28 11:01:55;;;;;;;2.00;0.45;;;16.40;50.00;;;;;;5099702;27;45301;-79
2022/12/28 11:04:23;;;;;;;0.40;0.40;;;16.40;50.10;;;;;;5098100;28;45205;-79
2022/12/28 11:06:54;;;;;;;0.85;0.50;;;16.40;50.10;;;;;;5100470;27;45608;-79
2022/12/28 11:09:24;;;;;;;0.93;0.57;;;16.40;50.10;;;;;;5099105;27;45209;-79
2022/12/28 11:11:52;;;;;;;0.68;0.38;;;16.40;50.10;;;;;;5099691;27;45468;-78
2022/12/28 11:14:26;;;;;;;0.70;0.40;;;16.40;50.10;;;;;;5102984;27;45510;-78
2022/12/28 11:16:53;;;;;;;1.10;0.50;;;16.40;50.20;;;;;;5102684;27;45443;-77
2022/12/28 11:19:20;;;;;;;1.20;0.30;;;16.40;50.20;;;;;;5102208;27;45389;-79
2022/12/28 11:21:47;;;;;;;2.30;0.43;;;16.40;50.10;;;;;;5106701;27;45178;-78
2022/12/28 11:24:15;;;;;;;0.70;0.38;;;16.40;50.10;;;;;;5104634;27;45459;-78
2022/12/28 11:26:44;;;;;;;0.40;0.40;;;16.50;50.20;;;;;;5094186;27;46659;-78
2022/12/28 11:29:12;;;;;;;1.20;0.50;;;16.40;50.20;;;;;;5089610;27;45193;-79
2022/12/28 11:31:42;;;;;;;1.55;0.47;;;16.40;50.20;;;;;;5092363;27;45212;-78
2022/12/28 11:34:15;;;;;;;0.30;0.30;;;16.50;50.30;;;;;;5092837;27;45395;-78
2022/12/28 11:36:42;;;;;;;3.20;0.50;;;16.50;50.20;;;;;;5097376;27;45493;-78
2022/12/28 11:39:32;;;;;;;0.47;0.40;;;16.50;50.20;;;;;;5101316;27;45294;-79
2022/12/28 11:42:00;;;;;;;0.68;0.50;;;16.50;50.20;;;;;;5104058;27;45233;-78
2022/12/28 11:44:49;;;;;;;1.42;0.50;;;16.50;50.20;;;;;;5105096;27;45505;-78
2022/12/28 11:47:31;;;;;;;1.38;0.40;;;16.50;50.20;;;;;;5099009;27;46739;-78
2022/12/28 11:50:32;;;;;;;2.63;0.30;;;16.50;50.20;;;;;;5104597;27;45334;-80
2022/12/28 11:52:59;;;;;;;0.63;0.35;;;16.50;50.20;;;;;;5101443;28;45248;-77
2022/12/28 11:55:48;;;;;;;2.05;0.47;;;16.60;50.10;;;;;;5096294;27;44757;-77
2022/12/28 11:58:44;;;;;;;0.82;0.45;;;16.70;49.90;;;;;;5098626;27;45457;-78
2022/12/28 12:01:12;;;;;;;0.30;0.30;;;16.70;49.80;;;;;;5098774;27;45225;-77
2022/12/28 12:04:10;;;;;;;2.08;0.40;;;16.80;49.80;;;;;;5102055;27;45314;-76
2022/12/28 12:07:26;;;;;;;1.50;0.50;;;16.90;49.60;;;;;;5107583;27;45247;-77
2022/12/28 12:10:15;;;;;;;0.40;0.40;;;16.90;49.50;;;;;;5102766;27;45476;-78
2022/12/28 12:12:50;;;;;;;1.02;0.30;;;16.90;50.20;;;;;;5106570;27;45145;-78
2022/12/28 12:15:20;;;;;;;0.22;0.22;;;16.90;49.70;;;;;;5102199;27;44607;-77
2022/12/28 12:17:48;;;;;;;1.58;0.40;;;16.80;49.80;;;;;;5101194;27;45231;-78
2022/12/28 12:20:24;;;;;;;1.88;0.50;;;16.80;49.70;;;;;;5098758;27;45240;-77
2022/12/28 12:22:52;;;;;;;0.85;0.55;;;16.90;49.70;;;;;;5096602;27;45247;-78
2022/12/28 12:25:22;;;;;;;0.52;0.40;;;16.90;49.60;;;;;;5088841;27;45274;-76
2022/12/28 12:27:50;;;;;;;0.50;0.50;;;16.90;49.60;;;;;;5098863;27;45444;-77
2022/12/28 12:30:19;;;;;;;0.93;0.50;;;16.90;49.70;;;;;;5097923;27;45131;-76
2022/12/28 12:32:47;;;;;;;0.65;0.38;;;16.90;49.70;;;;;;5096549;27;45272;-77
2022/12/28 12:35:15;;;;;;;0.85;0.50;;;16.90;49.70;;;;;;5097336;27;45239;-76
2022/12/28 12:37:47;;;;;;;0.57;0.35;;;16.90;49.80;;;;;;5095095;27;45148;-77
2022/12/28 12:40:56;;;;;;;0.40;0.40;;;16.90;49.80;;;;;;5089001;27;47890;-77
2022/12/28 12:43:31;;;;;;;1.02;0.50;;;16.90;50.00;;;;;;5091834;27;45193;-76
2022/12/28 12:46:15;;;;;;;0.88;0.45;;;16.80;50.00;;;;;;5085771;27;45253;-75
2022/12/28 12:48:59;;;;;;;0.52;0.45;;;16.80;50.10;;;;;;5086513;27;45227;-75
2022/12/28 12:51:27;;;;;;;0.60;0.43;;;16.80;50.10;;;;;;5091843;27;47693;-77
2022/12/28 12:54:22;;;;;;;0.50;0.45;;;16.80;50.20;;;;;;5099723;27;45214;-78
2022/12/28 12:56:51;;;;;;;0.50;0.50;;;16.80;50.30;;;;;;5084628;27;45169;-77
2022/12/28 12:59:40;;;;;;;0.68;0.38;;;16.80;50.30;;;;;;5092481;27;45416;-77
2022/12/28 13:02:30;;;;;;;0.77;0.43;;;16.80;50.40;;;;;;5071082;27;46942;-78
2022/12/28 13:04:57;;;;;;;0.90;0.38;;;16.80;50.40;;;;;;5065532;28;45319;-77
2022/12/28 13:07:26;;;;;;;0.73;0.60;;;16.80;50.50;;;;;;5070220;27;45350;-79
2022/12/28 13:09:53;;;;;;;1.67;0.63;;;16.80;50.50;;;;;;5070025;28;45494;-79
2022/12/28 13:12:20;;;;;;;0.60;0.50;;;16.80;50.50;;;;;;5068262;27;45386;-79
2022/12/28 13:14:50;;;;;;;2.85;0.40;;;16.80;50.50;;;;;;5070189;27;45324;-79
2022/12/28 13:17:18;;;;;;;0.52;0.50;;;16.70;50.50;;;;;;5068980;27;45173;-78
2022/12/28 13:19:46;;;;;;;0.40;0.35;;;16.70;50.60;;;;;;5068212;28;45168;-80
2022/12/28 13:22:26;;;;;;;0.80;0.32;;;16.70;50.60;;;;;;5091250;27;47297;-78
2022/12/28 13:24:53;;;;;;;0.50;0.50;;;16.70;50.70;;;;;;5156752;27;45225;-81